Terminal Aerodrome Forecast
Issued by NWS Chicago, IL

Home | Current Version | Previous Version | Text Only | Print | Product List | Glossary Off
Versions: 1 2 3 4 5 6 7 8 9 10 11 12 13 14 15 16 17 18 19 20 21 22 23 24 25 26 27 28 29 30

000
FTUS43 KLOT 301731
TAFRFD
TAF
KRFD 301731Z 3018/3118 26005KT P6SM VCSH SCT025 BKN200
     FM301930 26006KT P6SM VCTS BKN035CB OVC250
      TEMPO 3020/3023 36008KT 2SM +TSRA SCT015 OVC020CB
     FM302300 29005KT P6SM SCT040 BKN180
     FM310900 35006KT P6SM BKN030
     FM311100 01010KT P6SM BKN010
     FM311500 02012G16KT P6SM BKN025 BKN250=

USA.gov is the U.S. government's official web portal to all federal, state and local government web resources and services.